| Date | Time | Temp. (oF) | Dew Point (oF) | Rel. Hum. (%) | Press. (in.) | Wind Dir. | Wind Speed (mph) | Hourly Rainfall (in.) |
|
|---|---|---|---|---|---|---|---|---|---|
| 1 | 10/03 | 00:00 | 48 | 41 | 79 | 29.87 | SW | 1 | 0.00 |
| 2 | 10/02 | 23:00 | 49 | 41 | 76 | 29.87 | SSW | 0 | 0.00 |
| 3 | 10/02 | 22:00 | 51 | 41 | 69 | 29.87 | SW | 1 | 0.00 |
| 4 | 10/02 | 21:00 | 51 | 40 | 67 | 29.86 | SW | 3 | 0.00 |
| 5 | 10/02 | 20:00 | 53 | 40 | 62 | 29.83 | WSW | 1 | 0.00 |
| 6 | 10/02 | 19:00 | 55 | 39 | 55 | 29.81 | WSW | 4 | 0.00 |
| 7 | 10/02 | 18:00 | 58 | 39 | 50 | 29.79 | W | 4 | 0.00 |
| 8 | 10/02 | 17:00 | 60 | 39 | 46 | 29.76 | W | 7 | 0.00 |
| 9 | 10/02 | 16:00 | 61 | 39 | 46 | 29.75 | NW | 3 | 0.00 |
| 10 | 10/02 | 15:00 | 60 | 39 | 47 | 29.74 | NNW | 5 | 0.00 |
| 11 | 10/02 | 14:00 | 59 | 40 | 50 | 29.74 | NW | 6 | 0.00 |
| 12 | 10/02 | 13:00 | 60 | 43 | 55 | 29.75 | WSW | 5 | 0.00 |
| 13 | 10/02 | 12:00 | 60 | 42 | 53 | 29.74 | WNW | 7 | 0.00 |
| 14 | 10/02 | 11:00 | 57 | 41 | 57 | 29.75 | NW | 5 | 0.00 |
| 15 | 10/02 | 10:00 | 57 | 44 | 64 | 29.75 | W | 12 | 0.00 |
| 16 | 10/02 | 09:00 | 54 | 44 | 71 | 29.74 | NW | 5 | 0.00 |
| 17 | 10/02 | 08:00 | 51 | 46 | 83 | 29.72 | W | 7 | 0.00 |
| 18 | 10/02 | 07:00 | 50 | 45 | 84 | 29.70 | W | 4 | 0.00 |
| 19 | 10/02 | 06:00 | 51 | 46 | 85 | 29.68 | SW | 4 | 0.00 |
| 20 | 10/02 | 05:00 | 52 | 47 | 84 | 29.67 | SW | 7 | 0.00 |
| 21 | 10/02 | 04:00 | 52 | 47 | 84 | 29.66 | W | 5 | 0.00 |
| 22 | 10/02 | 03:00 | 53 | 47 | 82 | 29.66 | WSW | 3 | 0.00 |
| 23 | 10/02 | 02:00 | 52 | 47 | 86 | 29.67 | W | 2 | 0.00 |
| 24 | 10/02 | 01:00 | 54 | 50 | 87 | 29.66 | WNW | 3 | 0.00 |